createdAt,value
2022-11-15T00:00:53.293Z,6.60
2022-11-15T00:06:13.577Z,6.32
2022-11-15T00:11:33.828Z,7.38
2022-11-15T00:16:53.764Z,7.88
2022-11-15T00:22:13.574Z,6.95
2022-11-15T00:27:33.419Z,8.18
2022-11-15T00:32:53.629Z,8.30
2022-11-15T00:38:13.908Z,8.32
2022-11-15T00:43:34.496Z,7.65
2022-11-15T00:48:54.733Z,8.73
2022-11-15T00:54:15.021Z,7.60
2022-11-15T00:59:35.068Z,7.72
2022-11-15T01:04:54.975Z,7.45
2022-11-15T01:10:15.350Z,7.97
2022-11-15T01:15:35.434Z,8.10
2022-11-15T01:20:55.893Z,8.25
2022-11-15T01:26:17.014Z,7.70
2022-11-15T01:31:37.063Z,7.28
2022-11-15T01:36:57.138Z,7.03
2022-11-15T01:42:17.479Z,8.10
2022-11-15T01:47:45.204Z,6.72
2022-11-15T01:53:05.352Z,7.85
2022-11-15T01:58:25.789Z,7.85
2022-11-15T02:04:12.570Z,8.38
2022-11-15T02:09:32.572Z,7.38
2022-11-15T02:14:57.478Z,7.50
2022-11-15T02:20:50.226Z,7.88
2022-11-15T02:26:29.566Z,7.18
2022-11-15T02:32:00.018Z,7.72
2022-11-15T02:37:44.058Z,7.03
2022-11-15T02:43:11.138Z,6.40
2022-11-15T02:48:33.264Z,7.25
2022-11-15T02:53:53.605Z,7.85
2022-11-15T02:59:25.806Z,6.60
2022-11-15T03:04:52.862Z,6.88
2022-11-15T03:10:51.310Z,6.07
2022-11-15T03:16:18.589Z,6.05
2022-11-15T03:27:02.935Z,5.43
2022-11-15T03:32:56.783Z,6.30
2022-11-15T03:38:26.849Z,5.90
2022-11-15T03:43:57.863Z,6.28
2022-11-15T03:49:30.851Z,5.90
2022-11-15T03:55:02.896Z,5.90
2022-11-15T04:00:23.181Z,6.10
2022-11-15T04:05:43.224Z,6.47
2022-11-15T04:11:03.284Z,5.75
2022-11-15T04:16:23.631Z,6.78
2022-11-15T04:21:43.875Z,7.22
2022-11-15T04:27:04.373Z,5.88
2022-11-15T04:32:24.743Z,5.93
2022-11-15T04:37:49.325Z,5.97
2022-11-15T04:43:10.003Z,5.63
2022-11-15T04:48:30.212Z,5.03
2022-11-15T04:53:50.356Z,5.60
2022-11-15T04:59:10.578Z,5.53
2022-11-15T05:04:30.662Z,6.40
2022-11-15T05:09:51.083Z,5.75
2022-11-15T05:15:11.284Z,5.68
2022-11-15T05:20:31.298Z,5.13
2022-11-15T05:25:51.649Z,5.43
2022-11-15T05:31:14.931Z,5.32
2022-11-15T05:36:38.815Z,5.43
2022-11-15T05:42:08.946Z,5.38
2022-11-15T05:47:31.392Z,4.97
2022-11-15T05:52:52.507Z,5.10
2022-11-15T05:58:12.961Z,5.03
2022-11-15T06:03:33.406Z,4.20
2022-11-15T06:08:53.839Z,4.97
2022-11-15T06:14:14.941Z,5.15
2022-11-15T06:19:34.994Z,4.70
2022-11-15T06:24:55.259Z,5.18
2022-11-15T06:30:15.407Z,4.68
2022-11-15T06:35:36.958Z,5.05
2022-11-15T06:41:03.192Z,5.25
2022-11-15T06:46:23.551Z,5.03
2022-11-15T06:51:43.792Z,5.80
2022-11-15T06:57:05.763Z,5.82
2022-11-15T07:02:25.870Z,6.35
2022-11-15T07:07:52.814Z,5.75
2022-11-15T07:13:12.942Z,6.70
2022-11-15T07:18:38.550Z,4.43
2022-11-15T07:23:58.377Z,4.93
2022-11-15T07:29:18.486Z,3.78
2022-11-15T07:34:38.293Z,3.97
2022-11-15T07:39:58.220Z,4.20
2022-11-15T07:45:18.179Z,4.18
2022-11-15T07:50:41.767Z,3.42
2022-11-15T07:56:01.964Z,3.45
2022-11-15T08:01:22.001Z,3.45
2022-11-15T08:06:42.372Z,3.20
2022-11-15T08:12:02.483Z,3.03
2022-11-15T08:17:26.210Z,2.50
2022-11-15T08:22:46.148Z,2.40
2022-11-15T08:28:08.353Z,2.63
2022-11-15T08:33:29.640Z,2.60
2022-11-15T08:38:49.852Z,2.47
2022-11-15T08:44:09.839Z,2.08
2022-11-15T08:49:30.243Z,2.13
2022-11-15T08:54:50.298Z,1.88
2022-11-15T09:00:10.956Z,1.67
2022-11-15T09:05:31.337Z,2.28
2022-11-15T09:10:51.790Z,1.20
2022-11-15T09:16:11.949Z,1.70
2022-11-15T09:21:32.902Z,1.00
2022-11-15T09:26:53.065Z,1.45
2022-11-15T09:32:12.956Z,1.25
2022-11-15T09:37:33.805Z,0.90
2022-11-15T09:42:57.012Z,0.60
2022-11-15T09:48:29.463Z,0.60
2022-11-15T09:54:46.134Z,0.75
2022-11-15T09:59:52.597Z,0.40
2022-11-15T10:04:54.877Z,0.80
2022-11-15T10:10:17.291Z,0.63
2022-11-15T10:15:20.383Z,0.40
2022-11-15T10:20:25.795Z,0.85
2022-11-15T10:25:29.956Z,0.50
2022-11-15T10:30:40.870Z,0.77
2022-11-15T10:35:42.477Z,0.50
2022-11-15T10:40:44.019Z,0.60
2022-11-15T10:45:46.828Z,0.50
2022-11-15T10:50:50.546Z,1.13
2022-11-15T10:56:04.376Z,0.40
2022-11-15T11:01:21.154Z,0.60
2022-11-15T11:06:22.875Z,0.45
2022-11-15T11:11:25.386Z,0.90
2022-11-15T11:16:56.444Z,0.55
2022-11-15T11:22:19.050Z,0.40
2022-11-15T11:27:52.878Z,0.80
2022-11-15T11:33:09.932Z,0.75
2022-11-15T11:38:12.398Z,0.68
2022-11-15T11:43:49.167Z,0.77
2022-11-15T11:49:02.471Z,0.63
2022-11-15T11:54:15.397Z,0.60
2022-11-15T11:59:49.424Z,0.68
2022-11-15T12:04:54.130Z,0.80
2022-11-15T12:10:17.697Z,0.95
2022-11-15T12:15:24.589Z,0.98
2022-11-15T12:20:35.297Z,0.68
2022-11-15T12:25:43.449Z,0.68
2022-11-15T12:31:12.645Z,0.73
2022-11-15T12:36:23.059Z,0.70
2022-11-15T12:41:42.630Z,1.35
2022-11-15T12:46:47.104Z,1.00
2022-11-15T12:51:48.553Z,1.00
2022-11-15T12:57:05.035Z,1.00
2022-11-15T13:02:33.070Z,0.90
2022-11-15T13:07:57.999Z,1.27
2022-11-15T13:13:04.768Z,1.83
2022-11-15T13:18:24.664Z,1.80
2022-11-15T13:23:26.290Z,1.60
2022-11-15T13:28:49.043Z,1.73
2022-11-15T13:33:51.256Z,1.20
2022-11-15T13:39:01.215Z,1.27
2022-11-15T13:44:04.821Z,1.90
2022-11-15T13:49:10.339Z,1.48
2022-11-15T13:54:34.159Z,1.63
2022-11-15T13:59:47.987Z,1.52
2022-11-15T14:04:53.885Z,1.23
2022-11-15T14:09:55.586Z,1.93
2022-11-15T14:14:58.656Z,1.83
2022-11-15T14:20:00.572Z,1.35
2022-11-15T14:25:15.105Z,1.60
2022-11-15T14:30:18.362Z,1.50
2022-11-15T14:35:23.568Z,1.35
2022-11-15T14:40:25.160Z,1.30
2022-11-15T14:45:28.311Z,1.30
2022-11-15T14:50:29.842Z,1.02
2022-11-15T14:55:36.585Z,0.95
2022-11-15T15:00:40.259Z,1.13
2022-11-15T15:05:44.047Z,1.58
2022-11-15T15:10:46.910Z,1.50
2022-11-15T15:15:50.025Z,1.13
2022-11-15T15:20:59.398Z,1.02
2022-11-15T15:26:00.935Z,1.58
2022-11-15T15:31:03.320Z,1.50
2022-11-15T15:36:05.229Z,1.60
2022-11-15T15:41:11.210Z,1.30
2022-11-15T15:46:15.258Z,1.07
2022-11-15T15:51:20.432Z,1.40
2022-11-15T15:56:22.260Z,1.35
2022-11-15T16:01:23.895Z,1.58
2022-11-15T16:06:41.252Z,1.48
2022-11-15T16:11:44.632Z,1.48
2022-11-15T16:16:46.178Z,1.70
2022-11-15T16:21:47.741Z,1.38
2022-11-15T16:26:51.036Z,1.60
2022-11-15T16:31:52.721Z,1.75
2022-11-15T16:36:54.976Z,1.27
2022-11-15T16:41:58.054Z,1.40
2022-11-15T16:46:59.675Z,1.20
2022-11-15T16:52:01.312Z,1.50
2022-11-15T16:57:03.570Z,1.33
2022-11-15T17:02:11.754Z,2.17
2022-11-15T17:07:13.465Z,1.45
2022-11-15T17:12:15.088Z,2.00
2022-11-15T17:17:16.701Z,1.75
2022-11-15T17:22:18.266Z,1.40
2022-11-15T17:27:19.819Z,1.67
2022-11-15T17:32:21.519Z,1.88
2022-11-15T17:37:23.040Z,1.50
2022-11-15T17:42:24.615Z,1.50
2022-11-15T17:47:26.117Z,3.15
2022-11-15T17:52:27.726Z,1.73
2022-11-15T17:57:29.335Z,1.98
2022-11-15T18:02:30.834Z,1.65
2022-11-15T18:07:32.462Z,2.25
2022-11-15T18:12:34.089Z,2.25
2022-11-15T18:17:35.582Z,2.70
2022-11-15T18:22:37.181Z,2.50
2022-11-15T18:27:38.709Z,2.47
2022-11-15T18:32:40.288Z,3.70
2022-11-15T18:37:41.926Z,4.07
2022-11-15T18:42:43.508Z,4.75
2022-11-15T18:47:45.128Z,6.00
2022-11-15T18:52:46.754Z,5.82
2022-11-15T18:57:48.460Z,6.00
2022-11-15T19:02:49.972Z,5.97
2022-11-15T19:07:51.606Z,6.90
2022-11-15T19:12:55.079Z,6.68
2022-11-15T19:17:56.614Z,7.28
2022-11-15T19:22:58.115Z,7.60
2022-11-15T19:27:59.696Z,8.57
2022-11-15T19:33:01.249Z,8.25
2022-11-15T19:38:02.924Z,8.30
2022-11-15T19:43:04.475Z,7.47
2022-11-15T19:48:06.282Z,9.20
2022-11-15T19:53:07.804Z,9.30
2022-11-15T19:58:09.679Z,8.90
2022-11-15T20:03:11.313Z,9.68
2022-11-15T20:08:12.964Z,9.13
2022-11-15T20:13:14.627Z,8.95
2022-11-15T20:18:19.426Z,10.15
2022-11-15T20:23:23.757Z,10.27
2022-11-15T20:28:28.027Z,9.30
2022-11-15T20:33:29.674Z,8.70
2022-11-15T20:38:31.712Z,9.32
2022-11-15T20:43:34.447Z,9.52
2022-11-15T20:48:36.545Z,9.02
2022-11-15T20:53:38.471Z,9.63
2022-11-15T20:58:40.409Z,10.18
2022-11-15T21:03:42.214Z,9.55
2022-11-15T21:08:43.810Z,9.25
2022-11-15T21:13:45.451Z,9.07
2022-11-15T21:18:47.049Z,9.93
2022-11-15T21:23:48.676Z,9.10
2022-11-15T21:28:50.265Z,8.93
2022-11-15T21:33:51.974Z,9.10
2022-11-15T21:38:53.562Z,8.88
2022-11-15T21:44:01.823Z,8.88
2022-11-15T21:49:04.918Z,7.53
2022-11-15T21:54:06.471Z,8.27
2022-11-15T21:59:07.986Z,7.22
2022-11-15T22:04:09.946Z,8.25
2022-11-15T22:09:11.621Z,8.13
2022-11-15T22:14:13.307Z,8.27
2022-11-15T22:19:14.912Z,7.43
2022-11-15T22:24:16.869Z,7.28
2022-11-15T22:29:18.413Z,7.05
2022-11-15T22:34:20.284Z,6.93
2022-11-15T22:39:21.836Z,6.65
2022-11-15T22:44:23.484Z,7.13
2022-11-15T22:49:25.086Z,6.60
2022-11-15T22:54:26.650Z,7.05
2022-11-15T22:59:28.197Z,7.63
2022-11-15T23:04:29.888Z,7.38
2022-11-15T23:09:31.896Z,6.78
2022-11-15T23:14:33.808Z,7.03
2022-11-15T23:19:35.397Z,7.15
2022-11-15T23:24:37.005Z,8.02
2022-11-15T23:29:38.598Z,8.30
2022-11-15T23:34:42.633Z,7.97
2022-11-15T23:39:44.199Z,7.53
2022-11-15T23:44:46.413Z,9.73
2022-11-15T23:49:48.101Z,9.10
2022-11-15T23:54:49.796Z,8.80
2022-11-15T23:59:51.409Z,10.15
